createdAt,value
2018-07-12T16:43:38.639Z,49.9
2018-07-12T16:44:28.661Z,49.9
2018-07-12T16:45:17.984Z,49.8
2018-07-12T16:46:08.839Z,49.8
2018-07-12T16:46:58.593Z,49.8
2018-07-12T16:47:48.733Z,49.8
2018-07-12T16:49:22.603Z,49.7
2018-07-12T16:50:13.390Z,49.7
2018-07-12T16:51:02.893Z,49.6
2018-07-12T16:51:52.713Z,49.6
2018-07-12T16:52:43.296Z,49.6
2018-07-12T16:53:33.638Z,49.6
2018-07-12T16:54:23.669Z,49.6
2018-07-12T16:55:13.548Z,49.5
2018-07-12T16:56:03.077Z,49.5
2018-07-12T16:56:53.412Z,49.5
2018-07-12T16:57:43.680Z,49.5
2018-07-12T16:58:33.505Z,49.4
2018-07-12T16:59:23.621Z,49.4
2018-07-12T17:00:13.339Z,49.4
2018-07-12T17:01:03.471Z,49.4
2018-07-12T17:01:53.728Z,49.4
2018-07-12T17:02:44.119Z,49.3
2018-07-12T17:03:34.148Z,49.3
2018-07-12T17:04:24.248Z,49.3
2018-07-12T17:05:14.092Z,49.3
2018-07-12T17:06:04.403Z,49.3
2018-07-12T17:06:54.730Z,49.2
2018-07-12T17:07:45.202Z,49.2
2018-07-12T17:08:34.604Z,49.2
2018-07-12T17:09:23.748Z,49.1
2018-07-12T17:10:14.110Z,49.1
2018-07-12T17:11:05.036Z,49.1
2018-07-12T17:11:54.588Z,49.1
2018-07-12T17:12:44.858Z,49
2018-07-12T17:13:34.981Z,49
2018-07-12T17:14:25.286Z,49
2018-07-12T17:15:14.503Z,49
2018-07-12T17:16:05.127Z,48.9
2018-07-12T17:16:54.623Z,48.9
2018-07-12T17:17:45.214Z,48.9
2018-07-12T17:18:35.353Z,48.9
2018-07-12T17:19:25.378Z,48.9
2018-07-12T17:20:15.443Z,48.9
2018-07-12T17:21:05.214Z,48.8
2018-07-12T17:21:55.282Z,48.8
2018-07-12T17:22:45.611Z,48.8
2018-07-12T17:23:35.793Z,48.8
2018-07-12T17:24:25.819Z,48.8
2018-07-12T17:25:15.544Z,48.8
2018-07-12T17:26:05.965Z,48.8
2018-07-12T17:26:55.653Z,48.8
2018-07-12T17:27:46.278Z,48.8
2018-07-12T17:28:36.336Z,48.7
2018-07-12T17:29:26.436Z,48.7
2018-07-12T17:30:16.201Z,48.7
2018-07-12T17:31:06.461Z,48.6
2018-07-12T17:31:56.304Z,48.6
2018-07-12T17:32:46.661Z,48.6
2018-07-12T17:33:36.643Z,48.6
2018-07-12T17:34:26.535Z,48.6
2018-07-12T17:35:16.643Z,48.5
2018-07-12T17:36:06.678Z,48.5
2018-07-12T17:36:56.708Z,48.5
2018-07-12T17:37:46.238Z,48.5
2018-07-12T17:38:36.878Z,48.5
2018-07-12T17:39:26.658Z,48.4
2018-07-12T17:40:17.269Z,48.4
2018-07-12T17:41:08.401Z,48.4
2018-07-12T17:41:57.090Z,48.4
2018-07-12T17:42:47.157Z,48.4
2018-07-12T17:43:37.596Z,48.4
2018-07-12T17:44:27.565Z,48.4
2018-07-12T17:45:17.353Z,48.4
2018-07-12T17:46:07.419Z,48.3
2018-07-12T17:46:57.772Z,48.3
2018-07-12T17:47:49.311Z,48.3
2018-07-12T17:48:37.949Z,48.3
2018-07-12T17:49:27.954Z,48.3
2018-07-12T17:50:17.471Z,48.3
2018-07-12T17:51:07.820Z,48.3
2018-07-12T17:51:58.178Z,48.3
2018-07-12T17:52:47.648Z,48.2
2018-07-12T17:53:37.978Z,48.2
2018-07-12T17:54:28.361Z,48.2
2018-07-12T17:55:18.363Z,48.2
2018-07-12T17:56:09.015Z,48.2
2018-07-12T17:56:58.542Z,48.1
2018-07-12T17:57:47.778Z,48.1
2018-07-12T17:58:38.659Z,48.1
2018-07-12T17:59:28.433Z,48.1
2018-07-12T18:00:18.530Z,48.1
2018-07-12T18:01:08.356Z,48.1
2018-07-12T18:01:58.933Z,48.1
2018-07-12T18:02:49.036Z,48.1
2018-07-12T18:03:39.105Z,48.1
2018-07-12T18:04:29.109Z,48.1
2018-07-12T18:05:20.630Z,48
2018-07-12T18:06:09.275Z,48
2018-07-12T18:06:58.997Z,48
2018-07-12T18:07:48.546Z,48
2018-07-12T18:08:38.879Z,48
2018-07-12T18:09:29.285Z,48
2018-07-12T18:10:19.074Z,47.9
2018-07-12T18:11:09.360Z,47.9
2018-07-12T18:11:59.418Z,47.9
2018-07-12T18:12:49.206Z,47.9
2018-07-12T18:13:39.311Z,47.9
2018-07-12T18:14:31.048Z,47.9
2018-07-12T18:15:19.970Z,47.9
2018-07-12T18:16:10.002Z,47.9
2018-07-12T18:17:00.111Z,47.8
2018-07-12T18:17:49.612Z,47.8
2018-07-12T18:18:39.432Z,47.8
2018-07-12T18:19:30.002Z,47.8
2018-07-12T18:20:20.328Z,47.8
2018-07-12T18:21:10.188Z,47.8
2018-07-12T18:22:02.679Z,47.8
2018-07-12T18:22:50.252Z,47.8
2018-07-12T18:23:40.559Z,47.8
2018-07-12T18:24:30.368Z,47.7
2018-07-12T18:25:20.417Z,47.7
2018-07-12T18:26:10.294Z,47.7
2018-07-12T18:27:00.336Z,47.7
2018-07-12T18:27:50.600Z,47.7
2018-07-12T18:28:40.388Z,47.6
2018-07-12T18:29:30.536Z,47.6
2018-07-12T18:30:21.085Z,47.6
2018-07-12T18:31:11.118Z,47.6
2018-07-12T18:32:00.464Z,47.6
2018-07-12T18:32:50.248Z,47.6
2018-07-12T18:33:40.592Z,47.6
2018-07-12T18:34:30.662Z,47.6
2018-07-12T18:35:20.898Z,47.6
2018-07-12T18:36:11.290Z,47.6
2018-07-12T18:37:01.600Z,47.6
2018-07-12T18:37:51.132Z,47.6
2018-07-12T18:38:41.440Z,47.6
2018-07-12T18:39:31.222Z,47.6
2018-07-12T18:40:21.323Z,47.6
2018-07-12T18:41:11.958Z,47.6
2018-07-12T18:42:01.953Z,47.6
2018-07-12T18:42:52.016Z,47.6
2018-07-12T18:43:43.405Z,47.6
2018-07-12T18:44:32.153Z,47.6
2018-07-12T18:45:22.037Z,47.5
2018-07-12T18:46:11.775Z,47.5
2018-07-12T18:47:02.358Z,47.5
2018-07-12T18:47:52.152Z,47.5
2018-07-12T18:48:42.497Z,47.4
2018-07-12T18:49:32.365Z,47.4
2018-07-12T18:50:22.400Z,47.4
2018-07-12T18:51:12.676Z,47.4
2018-07-12T18:52:02.743Z,47.4
2018-07-12T18:52:52.542Z,47.4
2018-07-12T18:53:42.574Z,47.4
2018-07-12T18:54:32.927Z,47.4
2018-07-12T18:55:22.798Z,47.4
2018-07-12T18:56:12.575Z,47.4
2018-07-12T18:57:03.558Z,47.4
2018-07-12T18:57:53.317Z,47.4
2018-07-12T18:58:42.774Z,47.3
2018-07-12T18:59:33.340Z,47.3
2018-07-12T19:00:23.389Z,47.3
2018-07-12T19:01:12.931Z,47.3
2018-07-12T19:02:02.986Z,47.3
2018-07-12T19:02:53.020Z,47.3
2018-07-12T19:03:43.353Z,47.3
2018-07-12T19:04:33.437Z,47.3
2018-07-12T19:05:23.842Z,47.3
2018-07-12T19:06:13.807Z,47.3
2018-07-12T19:07:03.659Z,47.3
2018-07-12T19:07:53.931Z,47.2
2018-07-12T19:08:44.664Z,47.2
2018-07-12T19:09:33.556Z,47.2
2018-07-12T19:10:24.190Z,47.2
2018-07-12T19:11:13.927Z,47.1
2018-07-12T19:12:03.798Z,47.1
2018-07-12T19:12:53.513Z,47.1
2018-07-12T19:13:44.406Z,47.1
2018-07-12T19:14:34.438Z,47.1
2018-07-12T19:15:25.196Z,47.1
2018-07-12T19:16:14.626Z,47.1
2018-07-12T19:17:04.670Z,47.1
2018-07-12T19:17:54.766Z,47.1
2018-07-12T19:18:44.538Z,47.1
2018-07-12T19:19:34.871Z,47.1
2018-07-12T19:20:24.784Z,47.1
2018-07-12T19:21:14.853Z,47.1
2018-07-12T19:22:05.064Z,47.1
2018-07-12T19:22:54.291Z,47.1
2018-07-12T19:23:44.938Z,47.1
2018-07-12T19:24:35.285Z,47.1
2018-07-12T19:25:25.312Z,47.1
2018-07-12T19:26:14.585Z,47.1
2018-07-12T19:27:05.208Z,47.1
2018-07-12T19:27:54.979Z,47
2018-07-12T19:28:45.033Z,47
2018-07-12T19:29:35.685Z,47
2018-07-12T19:30:25.439Z,47
2018-07-12T19:31:14.807Z,47
2018-07-12T19:32:05.368Z,46.9
2018-07-12T19:32:55.645Z,46.9
2018-07-12T19:33:46.635Z,46.9
2018-07-12T19:34:35.757Z,46.9
2018-07-12T19:35:25.598Z,46.9
2018-07-12T19:36:15.610Z,46.9
2018-07-12T19:37:06.021Z,46.9
2018-07-12T19:37:56.296Z,46.9
2018-07-12T19:38:46.372Z,46.9
2018-07-12T19:39:35.297Z,46.9
2018-07-12T19:40:26.207Z,46.9
2018-07-12T19:41:16.519Z,46.9
2018-07-12T19:42:06.750Z,46.9
2018-07-12T19:42:56.483Z,46.9
2018-07-12T19:43:46.263Z,46.8
2018-07-12T19:44:36.817Z,46.8
2018-07-12T19:45:26.858Z,46.8
2018-07-12T19:46:16.085Z,46.8
2018-07-12T19:47:07.192Z,46.8
2018-07-12T19:47:57.054Z,46.8
2018-07-12T19:48:47.086Z,46.8
2018-07-12T19:49:36.867Z,46.8
2018-07-12T19:50:27.201Z,46.8
2018-07-12T19:51:17.304Z,46.8
2018-07-12T19:52:07.131Z,46.8
2018-07-12T19:52:57.425Z,46.8
2018-07-12T19:53:46.911Z,46.8
2018-07-12T19:54:37.296Z,46.8
2018-07-12T19:55:27.743Z,46.7
2018-07-12T19:56:17.694Z,46.7
2018-07-12T19:57:06.995Z,46.7
2018-07-12T19:57:56.797Z,46.7
2018-07-12T19:58:47.431Z,46.7
2018-07-12T19:59:37.989Z,46.7
2018-07-12T20:00:27.513Z,46.6
2018-07-12T20:01:17.521Z,46.6
2018-07-12T20:02:08.124Z,46.6
2018-07-12T20:02:58.180Z,46.6
2018-07-12T20:03:48.669Z,46.6
2018-07-12T20:04:38.093Z,46.6
2018-07-12T20:05:28.182Z,46.6
2018-07-12T20:06:17.985Z,46.6
2018-07-12T20:07:08.255Z,46.6
2018-07-12T20:07:58.382Z,46.7
2018-07-12T20:08:48.638Z,46.6
2018-07-12T20:09:38.464Z,46.6
2018-07-12T20:10:27.980Z,46.6
2018-07-12T20:11:18.555Z,46.6
2018-07-12T20:12:08.365Z,46.6
2018-07-12T20:12:59.036Z,46.6
2018-07-12T20:13:49.008Z,46.6
2018-07-12T20:14:38.815Z,46.6
2018-07-12T20:15:28.880Z,46.6
2018-07-12T20:16:17.937Z,46.6
2018-07-12T20:17:08.274Z,46.6
2018-07-12T20:17:58.108Z,46.6
2018-07-12T20:18:48.650Z,46.6
2018-07-12T20:19:39.184Z,46.6
2018-07-12T20:20:29.577Z,46.5
2018-07-12T20:21:18.783Z,46.5
2018-07-12T20:22:09.402Z,46.5
2018-07-12T20:22:59.462Z,46.5
2018-07-12T20:23:49.540Z,46.5
2018-07-12T20:24:39.295Z,46.5
2018-07-12T20:25:31.238Z,46.4
2018-07-12T20:26:21.078Z,46.4
2018-07-12T20:27:10.027Z,46.4
2018-07-12T20:27:59.567Z,46.4
2018-07-12T20:28:50.160Z,46.4
2018-07-12T20:29:39.948Z,46.4
2018-07-12T20:30:30.297Z,46.4
2018-07-12T20:31:20.984Z,46.4
2018-07-12T20:32:10.194Z,46.4
2018-07-12T20:33:00.242Z,46.4
2018-07-12T20:33:50.359Z,46.4
2018-07-12T20:34:40.106Z,46.4
2018-07-12T20:35:29.597Z,46.4
2018-07-12T20:36:20.273Z,46.4
2018-07-12T20:37:10.940Z,46.4
2018-07-12T20:38:00.655Z,46.4
2018-07-12T20:38:50.418Z,46.4
2018-07-12T20:39:40.720Z,46.4
2018-07-12T20:40:31.061Z,46.4
2018-07-12T20:41:20.607Z,46.3
2018-07-12T20:42:11.232Z,46.3
2018-07-12T20:43:01.046Z,46.3
2018-07-12T20:43:51.394Z,46.3
2018-07-12T20:44:40.908Z,46.3
2018-07-12T20:45:31.222Z,46.3
2018-07-12T20:46:21.267Z,46.3
2018-07-12T20:47:11.574Z,46.3
2018-07-12T20:48:01.390Z,46.3
2018-07-12T20:48:51.071Z,46.3
2018-07-12T20:49:41.291Z,46.3
2018-07-12T20:50:31.572Z,46.3
2018-07-12T20:51:21.928Z,46.3
2018-07-12T20:52:11.155Z,46.2
2018-07-12T20:53:01.481Z,46.2
2018-07-12T20:53:52.088Z,46.2
2018-07-12T20:54:43.028Z,46.2
2018-07-12T20:55:31.938Z,46.2
2018-07-12T20:56:22.277Z,46.2
2018-07-12T20:57:12.375Z,46.2
2018-07-12T20:58:01.623Z,46.2
2018-07-12T20:58:52.485Z,46.2
2018-07-12T20:59:41.441Z,46.2
2018-07-12T21:00:32.086Z,46.1
2018-07-12T21:01:22.446Z,46.1
2018-07-12T21:02:12.826Z,46.1
2018-07-12T21:03:01.990Z,46.1
2018-07-12T21:03:52.627Z,46.1
2018-07-12T21:04:42.711Z,46.1
2018-07-12T21:05:31.890Z,46.1
2018-07-12T21:06:22.776Z,46.1
2018-07-12T21:07:12.485Z,46.1
2018-07-12T21:08:02.680Z,46.1
2018-07-12T21:08:53.048Z,46.1
2018-07-12T21:09:43.022Z,46
2018-07-12T21:10:33.377Z,46
2018-07-12T21:11:23.213Z,46
2018-07-12T21:12:13.221Z,46
2018-07-12T21:13:03.012Z,46
2018-07-12T21:13:53.647Z,46
2018-07-12T21:14:43.683Z,46
2018-07-12T21:15:34.652Z,45.9
2018-07-12T21:16:22.792Z,45.9
2018-07-12T21:17:12.845Z,45.9
2018-07-12T21:18:03.403Z,45.9
2018-07-12T21:18:53.707Z,45.9
2018-07-12T21:19:44.139Z,45.9
2018-07-12T21:20:33.841Z,45.9
2018-07-12T21:21:23.653Z,45.9
2018-07-12T21:22:14.027Z,45.9
2018-07-12T21:23:04.106Z,45.9
2018-07-12T21:23:54.207Z,45.9
2018-07-12T21:24:44.513Z,45.9
2018-07-12T21:25:34.258Z,45.9
2018-07-12T21:26:23.509Z,45.9
2018-07-12T21:27:14.114Z,45.9
2018-07-12T21:28:03.629Z,45.9
2018-07-12T21:28:54.230Z,45.9
2018-07-12T21:29:44.897Z,45.9
2018-07-12T21:30:34.776Z,45.9
2018-07-12T21:31:24.452Z,45.9
2018-07-12T21:32:14.536Z,45.9
2018-07-12T21:33:04.844Z,45.9
2018-07-12T21:33:55.197Z,45.9
2018-07-12T21:34:43.856Z,45.9
2018-07-12T21:35:34.838Z,45.8
2018-07-12T21:36:24.301Z,45.8
2018-07-12T21:37:14.991Z,45.9
2018-07-12T21:38:04.486Z,45.9
2018-07-12T21:38:54.821Z,45.9
2018-07-12T21:39:45.357Z,45.8
2018-07-12T21:40:35.707Z,45.8
2018-07-12T21:41:25.803Z,45.8
2018-07-12T21:42:15.008Z,45.8
2018-07-12T21:43:05.319Z,45.8
2018-07-12T21:43:55.962Z,45.8
2018-07-12T21:44:46.002Z,45.8
2018-07-12T21:45:35.484Z,45.8
2018-07-12T21:46:26.214Z,45.8
2018-07-12T21:47:15.981Z,45.8
2018-07-12T21:48:06.272Z,45.8
2018-07-12T21:48:56.019Z,45.8
2018-07-12T21:49:45.336Z,45.8
2018-07-12T21:50:35.949Z,45.8
2018-07-12T21:51:25.750Z,45.7
2018-07-12T21:52:16.095Z,45.7
2018-07-12T21:53:06.632Z,45.7
2018-07-12T21:53:56.687Z,45.7
2018-07-12T21:54:46.217Z,45.7
2018-07-12T21:55:36.527Z,45.7
2018-07-12T21:56:26.906Z,45.7
2018-07-12T21:57:16.409Z,45.6
2018-07-12T21:58:06.464Z,45.6
2018-07-12T21:58:57.093Z,45.7
2018-07-12T21:59:46.880Z,45.6
2018-07-12T22:00:37.244Z,45.6
2018-07-12T22:01:27.339Z,45.6
2018-07-12T22:02:17.064Z,45.6
2018-07-12T22:03:06.352Z,45.6
2018-07-12T22:03:57.193Z,45.6
2018-07-12T22:04:46.775Z,45.6
2018-07-12T22:05:37.074Z,45.6
2018-07-12T22:06:27.432Z,45.6
2018-07-12T22:07:17.207Z,45.7
2018-07-12T22:08:07.374Z,45.6
2018-07-12T22:08:56.574Z,45.6
2018-07-12T22:09:47.666Z,45.6
2018-07-12T22:10:37.751Z,45.6
2018-07-12T22:11:27.522Z,45.6
2018-07-12T22:12:17.403Z,45.6
2018-07-12T22:13:07.722Z,45.6
2018-07-12T22:13:57.712Z,45.6
2018-07-12T22:14:48.326Z,45.6
2018-07-12T22:15:38.113Z,45.6
2018-07-12T22:16:28.451Z,45.5
2018-07-12T22:17:17.668Z,45.5
2018-07-12T22:18:08.357Z,45.5
2018-07-12T22:18:58.327Z,45.5
2018-07-12T22:19:48.676Z,45.5
2018-07-12T22:20:38.182Z,45.5
2018-07-12T22:21:28.247Z,45.5
2018-07-12T22:22:18.567Z,45.5
2018-07-12T22:23:08.637Z,45.5
2018-07-12T22:23:58.797Z,45.5
2018-07-12T22:24:48.534Z,45.5
2018-07-12T22:25:39.119Z,45.5
2018-07-12T22:26:28.082Z,45.4
2018-07-12T22:27:19.023Z,45.4
2018-07-12T22:28:09.120Z,45.4
2018-07-12T22:28:59.344Z,45.4
2018-07-12T22:29:49.159Z,45.4
2018-07-12T22:30:40.265Z,45.4
2018-07-12T22:31:29.281Z,45.4
2018-07-12T22:32:19.339Z,45.4
2018-07-12T22:33:09.726Z,45.4
2018-07-12T22:33:59.804Z,45.4
2018-07-12T22:34:49.598Z,45.4
2018-07-12T22:35:39.642Z,45.4
2018-07-12T22:36:29.992Z,45.4
2018-07-12T22:37:19.503Z,45.4
2018-07-12T22:38:09.542Z,45.4
2018-07-12T22:39:00.147Z,45.4
2018-07-12T22:39:50.203Z,45.4
2018-07-12T22:40:40.016Z,45.4
2018-07-12T22:41:29.773Z,45.4
2018-07-12T22:42:19.937Z,45.3
2018-07-12T22:43:09.721Z,45.3
2018-07-12T22:43:59.797Z,45.3
2018-07-12T22:44:50.095Z,45.3
2018-07-12T22:45:40.123Z,45.3
2018-07-12T22:46:30.442Z,45.3
2018-07-12T22:47:20.241Z,45.3
2018-07-12T22:48:11.681Z,45.3
2018-07-12T22:49:02.878Z,45.3
2018-07-12T22:49:50.477Z,45.3
2018-07-12T22:50:40.628Z,45.3
2018-07-12T22:51:30.116Z,45.3
2018-07-12T22:52:21.202Z,45.3
2018-07-12T22:53:10.148Z,45.3
2018-07-12T22:54:01.325Z,45.3
2018-07-12T22:54:50.669Z,45.3
2018-07-12T22:55:40.696Z,45.3
2018-07-12T22:56:30.708Z,45.3
2018-07-12T22:57:20.873Z,45.3
2018-07-12T22:58:11.641Z,45.3
2018-07-12T22:59:01.127Z,45.3
2018-07-12T22:59:51.752Z,45.3
2018-07-12T23:00:41.272Z,45.2
2018-07-12T23:01:31.573Z,45.2
2018-07-12T23:02:21.670Z,45.2
2018-07-12T23:03:12.048Z,45.2
2018-07-12T23:04:02.063Z,45.2
2018-07-12T23:04:51.905Z,45.2
2018-07-12T23:05:41.955Z,45.1
2018-07-12T23:06:31.646Z,45.1
2018-07-12T23:07:22.359Z,45.1
2018-07-12T23:08:11.821Z,45.1
2018-07-12T23:09:01.343Z,45.1
2018-07-12T23:09:51.961Z,45.1
2018-07-12T23:10:41.755Z,45.1
2018-07-12T23:11:32.160Z,45.1
2018-07-12T23:12:22.147Z,45.1
2018-07-12T23:13:12.506Z,45.1
2018-07-12T23:14:02.592Z,45.1
2018-07-12T23:14:52.677Z,45.1
2018-07-12T23:15:42.712Z,45.1
2018-07-12T23:16:32.766Z,45.1
2018-07-12T23:17:22.268Z,45.1
2018-07-12T23:18:12.956Z,45.1
2018-07-12T23:19:02.124Z,45.1
2018-07-12T23:19:52.737Z,45.1
2018-07-12T23:20:43.129Z,45.1
2018-07-12T23:21:33.165Z,45.1
2018-07-12T23:22:22.679Z,45.1
2018-07-12T23:23:12.166Z,45.1
2018-07-12T23:24:02.804Z,45.1
2018-07-12T23:24:54.556Z,45.1
2018-07-12T23:25:43.074Z,45.1
2018-07-12T23:26:33.617Z,45.1
2018-07-12T23:27:23.850Z,45.1
2018-07-12T23:28:13.680Z,45.1
2018-07-12T23:29:04.035Z,45.1
2018-07-12T23:29:54.057Z,45
2018-07-12T23:30:43.610Z,45.1
2018-07-12T23:31:33.900Z,45
2018-07-12T23:32:24.213Z,45
2018-07-12T23:33:14.001Z,45
2018-07-12T23:34:04.426Z,45
2018-07-12T23:34:53.846Z,45
2018-07-12T23:35:44.499Z,45
2018-07-12T23:36:34.542Z,44.9
2018-07-12T23:37:23.778Z,44.9
2018-07-12T23:38:14.120Z,45
2018-07-12T23:39:04.213Z,44.9
2018-07-12T23:39:54.264Z,44.9
2018-07-12T23:40:43.474Z,44.9
2018-07-12T23:41:34.105Z,44.9
2018-07-12T23:42:24.459Z,44.9
2018-07-12T23:43:15.060Z,44.9
2018-07-12T23:44:04.893Z,44.9
2018-07-12T23:44:54.678Z,44.9
2018-07-12T23:45:44.741Z,44.9
2018-07-12T23:46:34.454Z,44.9
2018-07-12T23:47:24.277Z,44.9
2018-07-12T23:48:14.616Z,44.9
2018-07-12T23:49:04.699Z,44.9
2018-07-12T23:49:55.291Z,44.9
2018-07-12T23:50:44.562Z,44.9
2018-07-12T23:51:35.728Z,44.9
2018-07-12T23:52:24.950Z,44.9
2018-07-12T23:53:15.309Z,44.8
2018-07-12T23:54:05.382Z,44.9
2018-07-12T23:54:55.424Z,44.8
2018-07-12T23:55:45.527Z,44.8
2018-07-12T23:56:35.527Z,44.8
2018-07-12T23:57:25.350Z,44.8
2018-07-12T23:58:15.405Z,44.8
2018-07-12T23:59:05.735Z,44.8
2018-07-12T23:59:55.590Z,44.8
